createdAt,value
2018-04-23T00:00:44.671Z,0
2018-04-23T00:01:44.609Z,0
2018-04-23T00:02:44.695Z,0
2018-04-23T00:03:44.672Z,0
2018-04-23T00:04:44.610Z,0
2018-04-23T00:05:44.604Z,0
2018-04-23T00:06:44.679Z,0
2018-04-23T00:07:44.608Z,0
2018-04-23T00:08:44.672Z,0
2018-04-23T00:09:44.608Z,0
2018-04-23T00:10:44.616Z,0
2018-04-23T00:11:44.609Z,0
2018-04-23T00:12:44.611Z,0
2018-04-23T00:13:44.678Z,0
2018-04-23T00:14:44.682Z,0
2018-04-23T00:15:44.683Z,0
2018-04-23T00:16:44.684Z,0
2018-04-23T00:17:44.685Z,0
2018-04-23T00:18:44.684Z,0
2018-04-23T00:19:44.614Z,0
2018-04-23T00:20:44.683Z,0
2018-04-23T00:21:44.613Z,0
2018-04-23T00:22:44.697Z,0
2018-04-23T00:23:44.620Z,0
2018-04-23T00:24:44.687Z,0
2018-04-23T00:25:44.727Z,0
2018-04-23T00:26:44.714Z,0
2018-04-23T00:27:44.707Z,0
2018-04-23T00:28:44.717Z,0
2018-04-23T00:29:44.612Z,0
2018-04-23T00:30:44.660Z,0
2018-04-23T00:31:44.727Z,0
2018-04-23T00:32:44.671Z,0
2018-04-23T00:33:44.690Z,0
2018-04-23T00:34:44.699Z,0
2018-04-23T00:35:44.596Z,0
2018-04-23T00:36:44.660Z,0
2018-04-23T00:37:44.717Z,0
2018-04-23T00:38:44.693Z,0
2018-04-23T00:39:44.695Z,0
2018-04-23T00:40:44.700Z,0
2018-04-23T00:41:44.623Z,0
2018-04-23T00:42:44.602Z,0
2018-04-23T00:43:44.621Z,0
2018-04-23T00:44:44.635Z,0
2018-04-23T00:45:44.730Z,0
2018-04-23T00:46:44.674Z,0
2018-04-23T00:47:44.701Z,0
2018-04-23T00:48:44.679Z,0
2018-04-23T00:49:44.713Z,0
2018-04-23T00:50:44.637Z,0
2018-04-23T00:51:44.643Z,0
2018-04-23T00:52:44.701Z,0
2018-04-23T00:53:44.747Z,0
2018-04-23T00:54:44.579Z,0
2018-04-23T00:55:44.696Z,0
2018-04-23T00:56:44.576Z,0
2018-04-23T00:57:44.667Z,0
2018-04-23T00:58:44.574Z,0
2018-04-23T00:59:44.705Z,0
2018-04-23T01:00:44.699Z,0
2018-04-23T01:01:44.632Z,0
2018-04-23T01:02:44.699Z,0
2018-04-23T01:03:44.651Z,0
2018-04-23T01:04:44.643Z,0
2018-04-23T01:05:44.716Z,0
2018-04-23T01:06:44.719Z,0
2018-04-23T01:07:44.723Z,0
2018-04-23T01:08:44.649Z,0
2018-04-23T01:09:44.646Z,0
2018-04-23T01:10:44.646Z,0
2018-04-23T01:11:44.684Z,0
2018-04-23T01:12:44.640Z,0
2018-04-23T01:13:44.718Z,0
2018-04-23T01:14:44.717Z,0
2018-04-23T01:15:44.715Z,0
2018-04-23T01:16:44.679Z,0
2018-04-23T01:17:44.758Z,0
2018-04-23T01:18:44.631Z,0
2018-04-23T01:19:44.659Z,0
2018-04-23T01:20:44.761Z,0
2018-04-23T01:21:44.725Z,0
2018-04-23T01:22:44.698Z,0
2018-04-23T01:23:44.689Z,0
2018-04-23T01:24:44.625Z,0
2018-04-23T01:25:44.628Z,0
2018-04-23T01:26:44.684Z,0
2018-04-23T01:27:44.690Z,0
2018-04-23T01:28:44.632Z,0
2018-04-23T01:29:44.690Z,0
2018-04-23T01:30:44.727Z,0
2018-04-23T01:31:44.731Z,0
2018-04-23T01:32:44.649Z,0
2018-04-23T01:33:44.772Z,0
2018-04-23T01:34:44.727Z,0
2018-04-23T01:35:44.768Z,0
2018-04-23T01:36:44.649Z,0
2018-04-23T01:37:44.743Z,0
2018-04-23T01:38:44.692Z,0
2018-04-23T01:39:44.655Z,0
2018-04-23T01:40:44.708Z,0
2018-04-23T01:41:44.757Z,0
2018-04-23T01:42:44.772Z,0
2018-04-23T01:43:44.708Z,0
2018-04-23T01:44:44.673Z,0
2018-04-23T01:45:44.736Z,0
2018-04-23T01:46:44.714Z,0
2018-04-23T01:47:44.738Z,0
2018-04-23T01:48:44.768Z,0
2018-04-23T01:49:44.704Z,0
2018-04-23T01:50:44.708Z,0
2018-04-23T01:51:44.712Z,0
2018-04-23T01:52:44.709Z,0
2018-04-23T01:53:44.772Z,0
2018-04-23T01:54:44.732Z,0
2018-04-23T01:55:44.773Z,0
2018-04-23T01:56:44.702Z,0
2018-04-23T01:57:44.670Z,0
2018-04-23T01:58:44.757Z,0
2018-04-23T01:59:44.708Z,0
2018-04-23T02:00:44.774Z,0
2018-04-23T02:01:44.651Z,0
2018-04-23T02:02:44.652Z,0
2018-04-23T02:03:44.666Z,0
2018-04-23T02:04:44.734Z,0
2018-04-23T02:05:44.724Z,0
2018-04-23T02:06:44.624Z,0
2018-04-23T02:07:44.619Z,0
2018-04-23T02:08:44.648Z,0
2018-04-23T02:09:44.646Z,0
2018-04-23T02:10:44.737Z,0
2018-04-23T02:11:44.658Z,0
2018-04-23T02:12:44.659Z,0
2018-04-23T02:13:44.739Z,0
2018-04-23T02:14:44.751Z,0
2018-04-23T02:15:44.679Z,0
2018-04-23T02:16:44.755Z,0
2018-04-23T02:17:44.688Z,0
2018-04-23T02:18:44.757Z,0
2018-04-23T02:19:44.678Z,0
2018-04-23T02:20:44.645Z,0
2018-04-23T02:21:44.685Z,0
2018-04-23T02:22:44.685Z,0
2018-04-23T02:23:44.761Z,0
2018-04-23T02:24:44.699Z,0
2018-04-23T02:25:44.666Z,0
2018-04-23T02:26:44.684Z,0
2018-04-23T02:27:44.754Z,0
2018-04-23T02:28:44.730Z,0
2018-04-23T02:29:44.763Z,0
2018-04-23T02:30:44.705Z,0
2018-04-23T02:31:44.743Z,0
2018-04-23T02:32:44.845Z,0
2018-04-23T02:33:44.729Z,0
2018-04-23T02:34:44.773Z,0
2018-04-23T02:35:44.830Z,0
2018-04-23T02:36:44.769Z,0
2018-04-23T02:37:44.740Z,0
2018-04-23T02:38:44.688Z,0
2018-04-23T02:39:44.741Z,0
2018-04-23T02:40:44.771Z,0
2018-04-23T02:41:44.712Z,0
2018-04-23T02:42:44.797Z,0
2018-04-23T02:43:44.711Z,0
2018-04-23T02:44:44.754Z,0
2018-04-23T02:45:44.777Z,0
2018-04-23T02:46:44.755Z,0
2018-04-23T02:47:44.800Z,0
2018-04-23T02:48:44.713Z,0
2018-04-23T02:49:44.808Z,0
2018-04-23T02:50:44.705Z,0
2018-04-23T02:51:44.758Z,0
2018-04-23T02:52:44.792Z,0
2018-04-23T02:53:44.781Z,0
2018-04-23T02:54:44.779Z,0
2018-04-23T02:55:44.792Z,0
2018-04-23T02:56:44.823Z,0
2018-04-23T02:57:44.773Z,0
2018-04-23T02:58:44.784Z,0
2018-04-23T02:59:44.809Z,0
2018-04-23T03:00:44.812Z,0
2018-04-23T03:01:44.813Z,0
2018-04-23T03:02:44.731Z,0
2018-04-23T03:03:44.766Z,0
2018-04-23T03:04:44.821Z,0
2018-04-23T03:05:44.752Z,0
2018-04-23T03:06:44.759Z,0
2018-04-23T03:07:44.731Z,0
2018-04-23T03:08:44.811Z,0
2018-04-23T03:09:44.693Z,0
2018-04-23T03:10:44.796Z,0
2018-04-23T03:11:44.815Z,0
2018-04-23T03:12:44.757Z,0
2018-04-23T03:13:44.815Z,0
2018-04-23T03:14:44.758Z,0
2018-04-23T03:15:44.711Z,0
2018-04-23T03:16:44.757Z,0
2018-04-23T03:17:44.766Z,0
2018-04-23T03:18:44.792Z,0
2018-04-23T03:19:44.756Z,0
2018-04-23T03:20:44.838Z,0
2018-04-23T03:21:44.839Z,0
2018-04-23T03:22:44.823Z,0
2018-04-23T03:23:44.804Z,0
2018-04-23T03:24:44.703Z,0
2018-04-23T03:25:44.828Z,0
2018-04-23T03:26:44.815Z,0
2018-04-23T03:27:44.780Z,0
2018-04-23T03:28:44.724Z,0
2018-04-23T03:29:44.851Z,0
2018-04-23T03:30:44.823Z,0
2018-04-23T03:31:44.811Z,0
2018-04-23T03:32:44.834Z,0
2018-04-23T03:33:44.758Z,0
2018-04-23T03:34:44.828Z,0
2018-04-23T03:35:44.768Z,0
2018-04-23T03:36:44.731Z,0
2018-04-23T03:37:44.785Z,0
2018-04-23T03:38:44.817Z,0
2018-04-23T03:39:44.767Z,0
2018-04-23T03:40:44.808Z,0
2018-04-23T03:41:44.842Z,0
2018-04-23T03:42:44.809Z,0
2018-04-23T03:43:44.787Z,0
2018-04-23T03:44:44.815Z,0
2018-04-23T03:45:44.844Z,0
2018-04-23T03:46:44.733Z,0
2018-04-23T03:47:44.756Z,0
2018-04-23T03:48:44.788Z,0
2018-04-23T03:49:44.787Z,0
2018-04-23T03:50:44.718Z,0
2018-04-23T03:51:44.820Z,0
2018-04-23T03:52:44.843Z,0
2018-04-23T03:53:44.821Z,0
2018-04-23T03:54:44.820Z,0
2018-04-23T03:55:44.754Z,0
2018-04-23T03:56:44.751Z,0
2018-04-23T03:57:44.809Z,0
2018-04-23T03:58:44.827Z,0
2018-04-23T03:59:44.752Z,0
2018-04-23T04:00:44.825Z,0
2018-04-23T04:01:44.754Z,0
2018-04-23T04:02:44.752Z,0
2018-04-23T04:03:44.834Z,0
2018-04-23T04:04:44.833Z,0
2018-04-23T04:05:44.797Z,0
2018-04-23T04:06:44.731Z,0
2018-04-23T04:07:44.762Z,0
2018-04-23T04:08:44.766Z,0
2018-04-23T04:09:44.752Z,0
2018-04-23T04:10:44.838Z,0
2018-04-23T04:11:44.736Z,0
2018-04-23T04:12:44.831Z,0
2018-04-23T04:13:44.827Z,0
2018-04-23T04:14:44.748Z,0
2018-04-23T04:15:44.858Z,0
2018-04-23T04:16:44.799Z,0
2018-04-23T04:17:44.838Z,0
2018-04-23T04:18:44.836Z,0
2018-04-23T04:19:44.874Z,0
2018-04-23T04:20:44.750Z,0
2018-04-23T04:21:44.760Z,0
2018-04-23T04:22:44.806Z,0
2018-04-23T04:23:44.861Z,0
2018-04-23T04:24:44.929Z,0
2018-04-23T04:25:44.879Z,0
2018-04-23T04:26:44.872Z,0
2018-04-23T04:27:44.867Z,0
2018-04-23T04:28:44.840Z,0
2018-04-23T04:29:44.799Z,0
2018-04-23T04:30:44.784Z,0
2018-04-23T04:31:44.874Z,0
2018-04-23T04:32:44.856Z,0
2018-04-23T04:33:44.843Z,0
2018-04-23T04:34:44.831Z,0
2018-04-23T04:35:44.794Z,0
2018-04-23T04:36:44.720Z,0
2018-04-23T04:37:44.707Z,0
2018-04-23T04:38:44.801Z,0
2018-04-23T04:39:44.735Z,0
2018-04-23T04:40:44.802Z,0
2018-04-23T04:41:44.711Z,0
2018-04-23T04:42:44.719Z,0
2018-04-23T04:43:44.709Z,0
2018-04-23T04:44:44.801Z,19
2018-04-23T04:45:44.790Z,22
2018-04-23T04:46:44.845Z,24
2018-04-23T04:47:44.741Z,24
2018-04-23T04:48:44.845Z,26
2018-04-23T04:49:44.756Z,27
2018-04-23T04:50:44.799Z,25
2018-04-23T04:51:44.848Z,23
2018-04-23T04:52:44.812Z,18
2018-04-23T04:53:44.726Z,13
2018-04-23T04:54:44.850Z,9
2018-04-23T04:55:44.763Z,7
2018-04-23T04:56:44.843Z,5
2018-04-23T04:57:44.807Z,0
2018-04-23T04:58:44.820Z,0
2018-04-23T04:59:44.850Z,0
2018-04-23T05:00:44.807Z,0
2018-04-23T05:01:44.823Z,0
2018-04-23T05:02:44.789Z,0
2018-04-23T05:03:44.736Z,0
2018-04-23T05:04:44.862Z,0
2018-04-23T05:05:44.865Z,0
2018-04-23T05:06:44.904Z,0
2018-04-23T05:07:44.829Z,0
2018-04-23T05:08:44.792Z,0
2018-04-23T05:09:44.774Z,0
2018-04-23T05:10:44.808Z,0
2018-04-23T05:11:44.906Z,0
2018-04-23T05:12:44.904Z,0
2018-04-23T05:13:44.772Z,0
2018-04-23T05:14:44.792Z,0
2018-04-23T05:15:44.775Z,0
2018-04-23T05:16:44.777Z,0
2018-04-23T05:17:44.866Z,0
2018-04-23T05:18:44.746Z,0
2018-04-23T05:19:44.789Z,0
2018-04-23T05:20:44.800Z,0
2018-04-23T05:21:44.952Z,0
2018-04-23T05:22:44.837Z,0
2018-04-23T05:23:44.917Z,0
2018-04-23T05:24:44.781Z,0
2018-04-23T05:25:44.862Z,0
2018-04-23T05:26:44.860Z,0
2018-04-23T05:27:44.904Z,0
2018-04-23T05:28:44.877Z,0
2018-04-23T05:29:44.816Z,0
2018-04-23T05:30:44.877Z,0
2018-04-23T05:31:44.786Z,0
2018-04-23T05:32:44.790Z,0
2018-04-23T05:33:44.800Z,0
2018-04-23T05:34:44.889Z,0
2018-04-23T05:35:44.802Z,0
2018-04-23T05:36:44.802Z,0
2018-04-23T05:37:44.886Z,14
2018-04-23T05:38:44.880Z,15
2018-04-23T05:39:44.811Z,15
2018-04-23T05:40:44.873Z,14
2018-04-23T05:41:44.883Z,13
2018-04-23T05:42:44.791Z,13
2018-04-23T05:43:44.885Z,12
2018-04-23T05:44:44.806Z,13
2018-04-23T05:45:44.925Z,14
2018-04-23T05:46:44.893Z,14
2018-04-23T05:47:44.819Z,15
2018-04-23T05:48:44.892Z,15
2018-04-23T05:49:44.895Z,16
2018-04-23T05:50:44.827Z,16
2018-04-23T05:51:44.899Z,17
2018-04-23T05:52:44.890Z,18
2018-04-23T05:53:44.827Z,20
2018-04-23T05:54:44.911Z,21
2018-04-23T05:55:44.913Z,22
2018-04-23T05:56:44.935Z,23
2018-04-23T05:57:44.832Z,24
2018-04-23T05:58:44.901Z,28
2018-04-23T05:59:44.920Z,30
2018-04-23T06:00:44.925Z,35
2018-04-23T06:01:44.875Z,37
2018-04-23T06:02:44.826Z,39
2018-04-23T06:03:44.954Z,42
2018-04-23T06:04:44.901Z,43
2018-04-23T06:05:44.792Z,43
2018-04-23T06:06:44.890Z,42
2018-04-23T06:07:44.888Z,40
2018-04-23T06:08:44.826Z,36
2018-04-23T06:09:44.896Z,35
2018-04-23T06:10:44.896Z,32
2018-04-23T06:11:44.872Z,33
2018-04-23T06:12:44.784Z,35
2018-04-23T06:13:44.899Z,38
2018-04-23T06:14:44.901Z,40
2018-04-23T06:15:44.829Z,41
2018-04-23T06:16:44.946Z,41
2018-04-23T06:17:44.846Z,41
2018-04-23T06:18:44.826Z,41
2018-04-23T06:19:44.917Z,39
2018-04-23T06:20:44.929Z,38
2018-04-23T06:21:44.815Z,36
2018-04-23T06:22:44.836Z,36
2018-04-23T06:23:44.975Z,37
2018-04-23T06:24:44.917Z,40
2018-04-23T06:25:44.915Z,42
2018-04-23T06:26:44.843Z,46
2018-04-23T06:27:44.916Z,49
2018-04-23T06:28:44.843Z,51
2018-04-23T06:29:44.845Z,50
2018-04-23T06:30:44.918Z,47
2018-04-23T06:31:44.848Z,45
2018-04-23T06:32:44.848Z,43
2018-04-23T06:33:44.892Z,44
2018-04-23T06:34:44.850Z,45
2018-04-23T06:35:44.843Z,48
2018-04-23T06:36:44.883Z,52
2018-04-23T06:37:44.893Z,56
2018-04-23T06:38:44.956Z,62
2018-04-23T06:39:44.917Z,67
2018-04-23T06:40:44.943Z,73
2018-04-23T06:41:44.951Z,79
2018-04-23T06:42:44.829Z,90
2018-04-23T06:43:44.896Z,97
2018-04-23T06:44:44.920Z,101
2018-04-23T06:45:44.896Z,103
2018-04-23T06:46:44.906Z,99
2018-04-23T06:47:44.953Z,104
2018-04-23T06:48:44.845Z,111
2018-04-23T06:49:44.934Z,123
2018-04-23T06:50:44.835Z,139
2018-04-23T06:51:44.928Z,150
2018-04-23T06:52:44.897Z,158
2018-04-23T06:53:44.897Z,157
2018-04-23T06:54:44.865Z,163
2018-04-23T06:55:44.961Z,172
2018-04-23T06:56:44.903Z,182
2018-04-23T06:57:44.968Z,195
2018-04-23T06:58:44.907Z,214
2018-04-23T06:59:44.912Z,229
2018-04-23T07:00:44.840Z,244
2018-04-23T07:01:44.991Z,256
2018-04-23T07:02:44.907Z,261
2018-04-23T07:03:44.960Z,264
2018-04-23T07:04:44.930Z,265
2018-04-23T07:05:44.913Z,260
2018-04-23T07:06:44.901Z,245
2018-04-23T07:07:44.939Z,230
2018-04-23T07:08:44.965Z,218
2018-04-23T07:09:44.979Z,209
2018-04-23T07:10:44.943Z,200
2018-04-23T07:11:44.977Z,197
2018-04-23T07:12:44.846Z,192
2018-04-23T07:13:45.000Z,197
2018-04-23T07:14:44.923Z,188
2018-04-23T07:15:44.942Z,189
2018-04-23T07:16:44.851Z,193
2018-04-23T07:17:44.904Z,201
2018-04-23T07:18:44.852Z,207
2018-04-23T07:19:44.937Z,217
2018-04-23T07:20:44.866Z,222
2018-04-23T07:21:44.939Z,228
2018-04-23T07:22:44.942Z,235
2018-04-23T07:23:44.865Z,240
2018-04-23T07:24:44.876Z,249
2018-04-23T07:25:44.874Z,256
2018-04-23T07:26:44.857Z,264
2018-04-23T07:27:44.946Z,278
2018-04-23T07:28:44.945Z,297
2018-04-23T07:29:44.860Z,301
2018-04-23T07:30:44.919Z,336
2018-04-23T07:31:44.901Z,271
2018-04-23T07:32:44.948Z,264
2018-04-23T07:33:44.970Z,269
2018-04-23T07:34:44.897Z,286
2018-04-23T07:35:44.980Z,305
2018-04-23T07:36:44.920Z,325
2018-04-23T07:37:44.957Z,353
2018-04-23T07:38:44.981Z,378
2018-04-23T07:39:44.964Z,404
2018-04-23T07:40:44.999Z,358
2018-04-23T07:41:44.988Z,355
2018-04-23T07:42:44.984Z,357
2018-04-23T07:43:44.961Z,379
2018-04-23T07:44:45.031Z,391
2018-04-23T07:45:44.989Z,407
2018-04-23T07:46:44.888Z,437
2018-04-23T07:47:44.965Z,449
2018-04-23T07:48:44.951Z,548
2018-04-23T07:49:44.890Z,669
2018-04-23T07:50:44.963Z,611
2018-04-23T07:51:45.042Z,581
2018-04-23T07:52:44.975Z,548
2018-04-23T07:53:45.035Z,432
2018-04-23T07:54:44.872Z,416
2018-04-23T07:55:44.968Z,425
2018-04-23T07:56:45.001Z,406
2018-04-23T07:57:45.007Z,393
2018-04-23T07:58:44.999Z,423
2018-04-23T07:59:44.881Z,423
2018-04-23T08:00:44.936Z,416
2018-04-23T08:01:44.996Z,445
2018-04-23T08:02:44.975Z,395
2018-04-23T08:03:45.011Z,392
2018-04-23T08:04:44.954Z,401
2018-04-23T08:05:45.007Z,364
2018-04-23T08:06:44.944Z,368
2018-04-23T08:07:44.899Z,379
2018-04-23T08:08:44.947Z,375
2018-04-23T08:09:45.015Z,375
2018-04-23T08:10:45.019Z,391
2018-04-23T08:11:45.012Z,370
2018-04-23T08:12:44.979Z,387
2018-04-23T08:13:44.947Z,385
2018-04-23T08:14:44.957Z,375
2018-04-23T08:15:44.987Z,396
2018-04-23T08:16:44.961Z,403
2018-04-23T08:17:44.908Z,414
2018-04-23T08:18:44.951Z,407
2018-04-23T08:19:45.065Z,416
2018-04-23T08:20:44.988Z,422
2018-04-23T08:21:44.947Z,406
2018-04-23T08:22:45.015Z,400
2018-04-23T08:23:44.918Z,392
2018-04-23T08:24:45.011Z,382
2018-04-23T08:25:45.011Z,375
2018-04-23T08:26:45.014Z,370
2018-04-23T08:27:44.984Z,367
2018-04-23T08:28:45.012Z,371
2018-04-23T08:29:45.028Z,375
2018-04-23T08:30:44.988Z,377
2018-04-23T08:31:45.078Z,377
2018-04-23T08:32:44.898Z,375
2018-04-23T08:33:44.997Z,368
2018-04-23T08:34:44.912Z,365
2018-04-23T08:35:44.990Z,375
2018-04-23T08:36:44.920Z,390
2018-04-23T08:37:44.900Z,415
2018-04-23T08:38:44.956Z,427
2018-04-23T08:39:44.985Z,500
2018-04-23T08:40:44.918Z,493
2018-04-23T08:41:44.870Z,489
2018-04-23T08:42:44.916Z,495
2018-04-23T08:43:44.933Z,483
2018-04-23T08:44:44.992Z,539
2018-04-23T08:45:44.935Z,426
2018-04-23T08:46:45.006Z,485
2018-04-23T08:47:44.931Z,422
2018-04-23T08:48:45.008Z,456
2018-04-23T08:49:45.004Z,458
2018-04-23T08:50:44.951Z,569
2018-04-23T08:51:44.948Z,724
2018-04-23T08:52:44.940Z,437
2018-04-23T08:53:44.937Z,532
2018-04-23T08:54:44.942Z,508
2018-04-23T08:55:45.116Z,763
2018-04-23T08:56:45.068Z,842
2018-04-23T08:57:45.005Z,600
2018-04-23T08:58:44.931Z,554
2018-04-23T08:59:45.038Z,535
2018-04-23T09:00:44.951Z,688
2018-04-23T09:01:45.012Z,877
2018-04-23T09:02:45.041Z,620
2018-04-23T09:03:45.036Z,520
2018-04-23T09:04:45.016Z,564
2018-04-23T09:05:44.973Z,547
2018-04-23T09:06:45.051Z,553
2018-04-23T09:07:45.051Z,509
2018-04-23T09:08:45.015Z,1067
2018-04-23T09:09:45.028Z,465
2018-04-23T09:10:44.941Z,531
2018-04-23T09:11:44.985Z,492
2018-04-23T09:12:44.990Z,452
2018-04-23T09:13:45.017Z,396
2018-04-23T09:14:45.038Z,405
2018-04-23T09:15:44.951Z,359
2018-04-23T09:16:44.950Z,379
2018-04-23T09:17:45.028Z,381
2018-04-23T09:18:44.889Z,634
2018-04-23T09:19:44.962Z,766
2018-04-23T09:20:44.921Z,409
2018-04-23T09:21:44.964Z,426
2018-04-23T09:22:44.956Z,1112
2018-04-23T09:23:44.930Z,1149
2018-04-23T09:24:44.945Z,947
2018-04-23T09:25:45.050Z,400
2018-04-23T09:26:45.063Z,333
2018-04-23T09:27:45.025Z,489
2018-04-23T09:28:45.057Z,237
2018-04-23T09:29:45.085Z,149
2018-04-23T09:30:45.010Z,119
2018-04-23T09:31:45.025Z,97
2018-04-23T09:32:44.966Z,77
2018-04-23T09:33:45.058Z,89
2018-04-23T09:34:45.060Z,121
2018-04-23T09:35:44.941Z,174
2018-04-23T09:36:45.075Z,169
2018-04-23T09:37:45.073Z,162
2018-04-23T09:38:44.952Z,152
2018-04-23T09:40:45.074Z,174
2018-04-23T09:41:44.942Z,175
2018-04-23T09:42:45.077Z,177
2018-04-23T09:43:45.004Z,215
2018-04-23T09:44:45.039Z,300
2018-04-23T09:45:45.106Z,454
2018-04-23T09:46:45.037Z,618
2018-04-23T09:47:45.038Z,574
2018-04-23T09:48:45.041Z,522
2018-04-23T09:49:44.962Z,667
2018-04-23T09:50:45.008Z,621
2018-04-23T09:51:45.070Z,694
2018-04-23T09:52:45.010Z,564
2018-04-23T09:53:45.051Z,445
2018-04-23T09:54:45.024Z,318
2018-04-23T09:55:44.979Z,251
2018-04-23T09:56:45.045Z,226
2018-04-23T09:57:45.047Z,224
2018-04-23T09:58:44.981Z,243
2018-04-23T09:59:44.987Z,203
2018-04-23T10:00:44.979Z,157
2018-04-23T10:01:45.018Z,138
2018-04-23T10:02:45.060Z,133
2018-04-23T10:03:44.989Z,134
2018-04-23T10:04:45.055Z,149
2018-04-23T10:05:45.019Z,226
2018-04-23T10:06:44.992Z,296
2018-04-23T10:07:45.085Z,351
2018-04-23T10:08:44.992Z,442
2018-04-23T10:09:45.059Z,487
2018-04-23T10:10:44.958Z,669
2018-04-23T10:11:44.991Z,692
2018-04-23T10:12:44.993Z,590
2018-04-23T10:13:45.096Z,575
2018-04-23T10:14:45.066Z,468
2018-04-23T10:15:45.091Z,486
2018-04-23T10:16:45.093Z,519
2018-04-23T10:17:45.064Z,645
2018-04-23T10:18:45.042Z,603
2018-04-23T10:19:44.966Z,626
2018-04-23T10:20:45.022Z,790
2018-04-23T10:21:45.026Z,1170
2018-04-23T10:22:45.078Z,760
2018-04-23T10:23:45.140Z,610
2018-04-23T10:24:45.036Z,547
2018-04-23T10:25:45.040Z,458
2018-04-23T10:26:44.967Z,615
2018-04-23T10:27:44.983Z,515
2018-04-23T10:28:44.987Z,849
2018-04-23T10:29:45.090Z,1126
2018-04-23T10:30:45.101Z,1029
2018-04-23T10:31:45.074Z,1065
2018-04-23T10:32:45.110Z,1124
2018-04-23T10:33:45.043Z,1024
2018-04-23T10:34:44.991Z,446
2018-04-23T10:35:45.036Z,1108
2018-04-23T10:36:45.078Z,1085
2018-04-23T10:37:45.075Z,805
2018-04-23T10:38:45.073Z,1098
2018-04-23T10:39:44.993Z,1101
2018-04-23T10:40:44.991Z,1066
2018-04-23T10:41:44.981Z,994
2018-04-23T10:42:45.059Z,1070
2018-04-23T10:43:44.997Z,1055
2018-04-23T10:44:45.079Z,1064
2018-04-23T10:45:45.029Z,933
2018-04-23T10:46:45.077Z,859
2018-04-23T10:47:44.986Z,974
2018-04-23T10:48:45.013Z,960
2018-04-23T10:49:45.072Z,759
2018-04-23T10:50:45.015Z,997
2018-04-23T10:51:45.033Z,981
2018-04-23T10:52:45.065Z,900
2018-04-23T10:53:44.953Z,964
2018-04-23T10:54:45.031Z,907
2018-04-23T10:55:45.099Z,576
2018-04-23T10:56:44.985Z,504
2018-04-23T10:57:45.062Z,773
2018-04-23T10:58:45.124Z,900
2018-04-23T10:59:45.105Z,1081
2018-04-23T11:00:45.120Z,1042
2018-04-23T11:01:45.045Z,1003
2018-04-23T11:02:45.065Z,936
2018-04-23T11:03:45.027Z,308
2018-04-23T11:04:45.116Z,333
2018-04-23T11:05:45.107Z,958
2018-04-23T11:06:45.026Z,388
2018-04-23T11:07:45.088Z,430
2018-04-23T11:08:45.023Z,382
2018-04-23T11:09:45.123Z,382
2018-04-23T11:10:45.034Z,687
2018-04-23T11:11:45.094Z,466
2018-04-23T11:12:45.025Z,418
2018-04-23T11:13:45.111Z,292
2018-04-23T11:14:45.096Z,895
2018-04-23T11:15:45.091Z,892
2018-04-23T11:16:45.024Z,816
2018-04-23T11:17:45.094Z,811
2018-04-23T11:18:45.036Z,920
2018-04-23T11:19:44.985Z,790
2018-04-23T11:20:45.031Z,769
2018-04-23T11:21:45.006Z,917
2018-04-23T11:22:45.053Z,1019
2018-04-23T11:23:45.093Z,1056
2018-04-23T11:24:45.149Z,1068
2018-04-23T11:25:45.093Z,1131
2018-04-23T11:26:45.008Z,701
2018-04-23T11:27:45.007Z,981
2018-04-23T11:28:45.138Z,1096
2018-04-23T11:29:45.136Z,1193
2018-04-23T11:30:45.146Z,480
2018-04-23T11:31:45.140Z,389
2018-04-23T11:32:45.123Z,1120
2018-04-23T11:33:45.126Z,1058
2018-04-23T11:34:45.108Z,1132
2018-04-23T11:35:45.136Z,459
2018-04-23T11:36:45.143Z,474
2018-04-23T11:37:45.078Z,387
2018-04-23T11:38:45.073Z,664
2018-04-23T11:39:45.134Z,394
2018-04-23T11:40:45.149Z,297
2018-04-23T11:41:45.149Z,273
2018-04-23T11:42:45.183Z,1069
2018-04-23T11:43:45.088Z,1076
2018-04-23T11:44:45.082Z,987
2018-04-23T11:45:45.079Z,1152
2018-04-23T11:46:45.147Z,829
2018-04-23T11:47:45.140Z,1136
2018-04-23T11:48:45.160Z,833
2018-04-23T11:49:45.152Z,1117
2018-04-23T11:50:45.076Z,1113
2018-04-23T11:51:45.076Z,971
2018-04-23T11:52:45.015Z,1152
2018-04-23T11:53:45.096Z,1151
2018-04-23T11:54:45.153Z,1139
2018-04-23T11:55:45.149Z,1169
2018-04-23T11:56:45.027Z,1183
2018-04-23T11:57:45.120Z,342
2018-04-23T11:58:45.150Z,771
2018-04-23T11:59:45.028Z,1034
2018-04-23T12:00:45.154Z,1056
2018-04-23T12:01:45.043Z,1103
2018-04-23T12:02:45.090Z,1093
2018-04-23T12:03:45.037Z,1081
2018-04-23T12:04:45.101Z,999
2018-04-23T12:05:45.151Z,1068
2018-04-23T12:06:45.049Z,936
2018-04-23T12:07:45.147Z,1126
2018-04-23T12:08:45.101Z,1118
2018-04-23T12:09:45.143Z,1100
2018-04-23T12:10:45.037Z,1090
2018-04-23T12:11:45.035Z,1095
2018-04-23T12:12:45.103Z,1076
2018-04-23T12:13:45.107Z,1037
2018-04-23T12:14:45.035Z,1084
2018-04-23T12:15:45.073Z,1090
2018-04-23T12:16:45.117Z,561
2018-04-23T12:17:45.126Z,795
2018-04-23T12:18:45.133Z,1034
2018-04-23T12:19:45.021Z,1027
2018-04-23T12:20:45.117Z,1102
2018-04-23T12:21:45.156Z,342
2018-04-23T12:22:45.135Z,445
2018-04-23T12:23:45.086Z,1114
2018-04-23T12:24:45.067Z,1109
2018-04-23T12:25:45.004Z,1092
2018-04-23T12:26:45.145Z,1030
2018-04-23T12:27:45.141Z,1084
2018-04-23T12:28:45.183Z,1042
2018-04-23T12:29:45.122Z,1147
2018-04-23T12:30:45.161Z,1149
2018-04-23T12:31:45.114Z,1083
2018-04-23T12:32:45.043Z,1132
2018-04-23T12:33:45.105Z,1104
2018-04-23T12:34:45.113Z,1114
2018-04-23T12:35:45.159Z,1169
2018-04-23T12:36:45.160Z,1144
2018-04-23T12:37:45.111Z,1151
2018-04-23T12:38:45.125Z,1069
2018-04-23T12:39:45.107Z,1009
2018-04-23T12:40:45.188Z,1086
2018-04-23T12:41:45.178Z,1093
2018-04-23T12:42:45.169Z,1057
2018-04-23T12:43:45.149Z,680
2018-04-23T12:44:45.055Z,1055
2018-04-23T12:45:45.114Z,1060
2018-04-23T12:46:45.125Z,1053
2018-04-23T12:47:45.173Z,1020
2018-04-23T12:48:45.183Z,1018
2018-04-23T12:49:45.181Z,1030
2018-04-23T12:50:45.138Z,920
2018-04-23T12:51:45.183Z,992
2018-04-23T12:53:45.175Z,951
2018-04-23T12:54:45.138Z,1025
2018-04-23T12:55:45.175Z,985
2018-04-23T12:56:45.193Z,886
2018-04-23T12:57:45.101Z,268
2018-04-23T12:58:45.186Z,253
2018-04-23T12:59:45.117Z,377
2018-04-23T13:00:45.186Z,554
2018-04-23T13:01:45.136Z,305
2018-04-23T13:02:45.106Z,291
2018-04-23T13:03:45.167Z,296
2018-04-23T13:04:45.134Z,388
2018-04-23T13:05:45.237Z,793
2018-04-23T13:06:45.209Z,815
2018-04-23T13:07:45.140Z,667
2018-04-23T13:08:45.129Z,814
2018-04-23T13:09:45.169Z,783
2018-04-23T13:10:45.107Z,731
2018-04-23T13:11:45.192Z,847
2018-04-23T13:12:45.149Z,832
2018-04-23T13:13:45.110Z,862
2018-04-23T13:14:45.086Z,977
2018-04-23T13:15:45.180Z,717
2018-04-23T13:16:45.136Z,720
2018-04-23T13:17:45.083Z,839
2018-04-23T13:18:45.129Z,883
2018-04-23T13:19:45.194Z,754
2018-04-23T13:20:45.151Z,958
2018-04-23T13:21:45.094Z,902
2018-04-23T13:22:45.203Z,797
2018-04-23T13:23:45.098Z,736
2018-04-23T13:24:45.236Z,887
2018-04-23T13:25:45.156Z,867
2018-04-23T13:26:45.111Z,817
2018-04-23T13:27:45.141Z,910
2018-04-23T13:28:45.188Z,884
2018-04-23T13:29:45.137Z,881
2018-04-23T13:30:45.118Z,782
2018-04-23T13:31:45.184Z,803
2018-04-23T13:32:45.118Z,749
2018-04-23T13:33:45.191Z,867
2018-04-23T13:34:45.112Z,918
2018-04-23T13:35:45.188Z,899
2018-04-23T13:36:45.201Z,909
2018-04-23T13:37:45.163Z,864
2018-04-23T13:38:45.164Z,881
2018-04-23T13:39:45.220Z,887
2018-04-23T13:40:45.109Z,858
2018-04-23T13:41:45.152Z,870
2018-04-23T13:42:45.195Z,890
2018-04-23T13:43:45.165Z,915
2018-04-23T13:44:45.226Z,923
2018-04-23T13:45:45.148Z,902
2018-04-23T13:46:45.163Z,895
2018-04-23T13:47:45.189Z,804
2018-04-23T13:48:45.162Z,857
2018-04-23T13:49:45.178Z,834
2018-04-23T13:50:45.175Z,664
2018-04-23T13:51:45.215Z,371
2018-04-23T13:52:45.195Z,901
2018-04-23T13:53:45.156Z,647
2018-04-23T13:54:45.196Z,287
2018-04-23T13:55:45.197Z,257
2018-04-23T13:56:45.101Z,289
2018-04-23T13:57:45.227Z,875
2018-04-23T13:58:45.200Z,314
2018-04-23T13:59:45.242Z,292
2018-04-23T14:00:45.236Z,461
2018-04-23T14:01:45.138Z,860
2018-04-23T14:02:45.168Z,812
2018-04-23T14:03:45.203Z,697
2018-04-23T14:04:45.205Z,824
2018-04-23T14:05:45.242Z,789
2018-04-23T14:06:45.147Z,773
2018-04-23T14:07:45.140Z,779
2018-04-23T14:08:45.208Z,798
2018-04-23T14:09:45.208Z,787
2018-04-23T14:10:45.137Z,763